sensor_id;sensor_type;location;lat;lon;timestamp;P1;durP1;ratioP1;P2;durP2;ratioP2
7941;SDS011;4016;50.758;7.150;2023-02-28T00:01:51;3.30;;;3.00;;
7941;SDS011;4016;50.758;7.150;2023-02-28T00:06:51;2.73;;;2.53;;
7941;SDS011;4016;50.758;7.150;2023-02-28T00:11:51;3.47;;;2.80;;
7941;SDS011;4016;50.758;7.150;2023-02-28T00:16:52;3.50;;;3.20;;
7941;SDS011;4016;50.758;7.150;2023-02-28T00:21:52;4.07;;;3.33;;
7941;SDS011;4016;50.758;7.150;2023-02-28T00:26:53;2.93;;;2.63;;
7941;SDS011;4016;50.758;7.150;2023-02-28T00:31:53;2.77;;;2.53;;
7941;SDS011;4016;50.758;7.150;2023-02-28T00:36:53;2.80;;;2.50;;
7941;SDS011;4016;50.758;7.150;2023-02-28T00:41:54;2.73;;;2.50;;
7941;SDS011;4016;50.758;7.150;2023-02-28T00:46:54;2.57;;;2.37;;
7941;SDS011;4016;50.758;7.150;2023-02-28T00:51:55;2.80;;;2.60;;
7941;SDS011;4016;50.758;7.150;2023-02-28T00:56:56;2.63;;;2.43;;
7941;SDS011;4016;50.758;7.150;2023-02-28T01:01:56;3.27;;;2.90;;
7941;SDS011;4016;50.758;7.150;2023-02-28T01:06:57;2.30;;;2.20;;
7941;SDS011;4016;50.758;7.150;2023-02-28T01:11:57;3.23;;;2.97;;
7941;SDS011;4016;50.758;7.150;2023-02-28T01:16:57;4.90;;;3.13;;
7941;SDS011;4016;50.758;7.150;2023-02-28T01:22:00;2.37;;;2.27;;
7941;SDS011;4016;50.758;7.150;2023-02-28T01:27:02;2.73;;;2.53;;
7941;SDS011;4016;50.758;7.150;2023-02-28T01:32:02;2.20;;;2.10;;
7941;SDS011;4016;50.758;7.150;2023-02-28T01:37:03;2.43;;;2.23;;
7941;SDS011;4016;50.758;7.150;2023-02-28T01:42:03;3.40;;;3.10;;
7941;SDS011;4016;50.758;7.150;2023-02-28T01:47:04;2.43;;;2.10;;
7941;SDS011;4016;50.758;7.150;2023-02-28T01:52:04;2.63;;;2.53;;
7941;SDS011;4016;50.758;7.150;2023-02-28T01:57:06;2.30;;;2.13;;
7941;SDS011;4016;50.758;7.150;2023-02-28T02:02:09;3.00;;;2.70;;
7941;SDS011;4016;50.758;7.150;2023-02-28T02:07:10;2.60;;;2.50;;
7941;SDS011;4016;50.758;7.150;2023-02-28T02:17:46;2.57;;;2.37;;
7941;SDS011;4016;50.758;7.150;2023-02-28T02:28:58;5.23;;;3.00;;
7941;SDS011;4016;50.758;7.150;2023-02-28T02:39:19;3.10;;;2.90;;
7941;SDS011;4016;50.758;7.150;2023-02-28T02:44:40;2.73;;;2.30;;
7941;SDS011;4016;50.758;7.150;2023-02-28T02:49:46;3.17;;;2.87;;
7941;SDS011;4016;50.758;7.150;2023-02-28T02:54:50;2.77;;;2.57;;
7941;SDS011;4016;50.758;7.150;2023-02-28T02:59:54;2.50;;;2.30;;
7941;SDS011;4016;50.758;7.150;2023-02-28T03:04:58;2.70;;;2.50;;
7941;SDS011;4016;50.758;7.150;2023-02-28T03:10:02;3.53;;;2.67;;
7941;SDS011;4016;50.758;7.150;2023-02-28T03:15:14;2.23;;;2.13;;
7941;SDS011;4016;50.758;7.150;2023-02-28T03:25:52;2.13;;;1.97;;
7941;SDS011;4016;50.758;7.150;2023-02-28T03:30:59;2.10;;;2.00;;
7941;SDS011;4016;50.758;7.150;2023-02-28T03:36:10;1.73;;;1.73;;
7941;SDS011;4016;50.758;7.150;2023-02-28T03:41:16;3.00;;;2.33;;
7941;SDS011;4016;50.758;7.150;2023-02-28T03:46:21;2.33;;;2.23;;
7941;SDS011;4016;50.758;7.150;2023-02-28T03:51:24;2.53;;;2.03;;
7941;SDS011;4016;50.758;7.150;2023-02-28T03:56:31;2.33;;;2.17;;
7941;SDS011;4016;50.758;7.150;2023-02-28T04:01:38;2.07;;;1.97;;
7941;SDS011;4016;50.758;7.150;2023-02-28T04:06:42;2.70;;;2.50;;
7941;SDS011;4016;50.758;7.150;2023-02-28T04:11:49;1.83;;;1.73;;
7941;SDS011;4016;50.758;7.150;2023-02-28T04:16:55;2.50;;;2.30;;
7941;SDS011;4016;50.758;7.150;2023-02-28T04:21:55;2.60;;;2.40;;
7941;SDS011;4016;50.758;7.150;2023-02-28T04:26:56;2.13;;;2.03;;
7941;SDS011;4016;50.758;7.150;2023-02-28T04:31:58;1.37;;;1.27;;
7941;SDS011;4016;50.758;7.150;2023-02-28T04:36:59;2.80;;;2.37;;
7941;SDS011;4016;50.758;7.150;2023-02-28T04:42:00;5.43;;;2.37;;
7941;SDS011;4016;50.758;7.150;2023-02-28T04:47:00;2.40;;;2.20;;
7941;SDS011;4016;50.758;7.150;2023-02-28T04:52:01;2.57;;;2.43;;
7941;SDS011;4016;50.758;7.150;2023-02-28T04:57:01;2.20;;;2.00;;
7941;SDS011;4016;50.758;7.150;2023-02-28T05:02:02;2.40;;;2.20;;
7941;SDS011;4016;50.758;7.150;2023-02-28T05:07:06;2.10;;;2.00;;
7941;SDS011;4016;50.758;7.150;2023-02-28T05:12:07;2.37;;;2.23;;
7941;SDS011;4016;50.758;7.150;2023-02-28T05:17:09;2.77;;;2.57;;
7941;SDS011;4016;50.758;7.150;2023-02-28T05:22:13;2.33;;;2.23;;
7941;SDS011;4016;50.758;7.150;2023-02-28T05:27:16;3.33;;;3.03;;
7941;SDS011;4016;50.758;7.150;2023-02-28T05:32:17;2.70;;;2.57;;
7941;SDS011;4016;50.758;7.150;2023-02-28T05:37:17;2.20;;;2.10;;
7941;SDS011;4016;50.758;7.150;2023-02-28T05:42:17;2.90;;;2.70;;
7941;SDS011;4016;50.758;7.150;2023-02-28T05:47:18;3.50;;;3.20;;
7941;SDS011;4016;50.758;7.150;2023-02-28T05:52:18;3.40;;;3.20;;
7941;SDS011;4016;50.758;7.150;2023-02-28T05:57:18;3.23;;;3.03;;
7941;SDS011;4016;50.758;7.150;2023-02-28T06:02:19;2.87;;;2.67;;
7941;SDS011;4016;50.758;7.150;2023-02-28T06:07:19;2.77;;;2.57;;
7941;SDS011;4016;50.758;7.150;2023-02-28T06:12:22;2.20;;;2.10;;
7941;SDS011;4016;50.758;7.150;2023-02-28T06:17:22;6.20;;;2.73;;
7941;SDS011;4016;50.758;7.150;2023-02-28T06:22:22;2.77;;;2.57;;
7941;SDS011;4016;50.758;7.150;2023-02-28T06:27:23;4.13;;;3.10;;
7941;SDS011;4016;50.758;7.150;2023-02-28T06:32:23;3.17;;;2.87;;
7941;SDS011;4016;50.758;7.150;2023-02-28T06:37:24;9.00;;;2.90;;
7941;SDS011;4016;50.758;7.150;2023-02-28T06:42:27;2.67;;;2.50;;
7941;SDS011;4016;50.758;7.150;2023-02-28T06:47:30;3.87;;;3.13;;
7941;SDS011;4016;50.758;7.150;2023-02-28T06:52:31;2.40;;;2.30;;
7941;SDS011;4016;50.758;7.150;2023-02-28T06:57:32;3.50;;;3.23;;
7941;SDS011;4016;50.758;7.150;2023-02-28T07:02:34;4.47;;;3.97;;
7941;SDS011;4016;50.758;7.150;2023-02-28T07:07:37;1.97;;;1.90;;
7941;SDS011;4016;50.758;7.150;2023-02-28T07:12:40;5.73;;;3.60;;
7941;SDS011;4016;50.758;7.150;2023-02-28T07:17:40;3.13;;;2.83;;
7941;SDS011;4016;50.758;7.150;2023-02-28T07:22:41;3.50;;;3.20;;
7941;SDS011;4016;50.758;7.150;2023-02-28T07:27:41;3.30;;;2.93;;
7941;SDS011;4016;50.758;7.150;2023-02-28T07:32:42;5.07;;;3.90;;
7941;SDS011;4016;50.758;7.150;2023-02-28T07:37:42;4.33;;;3.87;;
7941;SDS011;4016;50.758;7.150;2023-02-28T07:42:42;3.97;;;3.60;;
7941;SDS011;4016;50.758;7.150;2023-02-28T07:47:43;6.83;;;4.30;;
7941;SDS011;4016;50.758;7.150;2023-02-28T07:52:44;3.47;;;3.17;;
7941;SDS011;4016;50.758;7.150;2023-02-28T07:57:44;3.63;;;2.97;;
7941;SDS011;4016;50.758;7.150;2023-02-28T08:02:44;5.30;;;3.87;;
7941;SDS011;4016;50.758;7.150;2023-02-28T08:07:45;3.33;;;3.03;;
7941;SDS011;4016;50.758;7.150;2023-02-28T08:12:47;3.93;;;3.63;;
7941;SDS011;4016;50.758;7.150;2023-02-28T08:17:47;3.83;;;3.43;;
7941;SDS011;4016;50.758;7.150;2023-02-28T08:22:48;4.70;;;3.80;;
7941;SDS011;4016;50.758;7.150;2023-02-28T08:27:50;3.20;;;3.00;;
7941;SDS011;4016;50.758;7.150;2023-02-28T08:32:51;10.87;;;2.63;;
7941;SDS011;4016;50.758;7.150;2023-02-28T08:37:52;2.73;;;2.53;;
7941;SDS011;4016;50.758;7.150;2023-02-28T08:42:52;3.80;;;2.90;;
7941;SDS011;4016;50.758;7.150;2023-02-28T08:47:53;2.47;;;2.30;;
7941;SDS011;4016;50.758;7.150;2023-02-28T08:52:55;3.10;;;2.90;;
7941;SDS011;4016;50.758;7.150;2023-02-28T08:57:55;3.27;;;2.97;;
7941;SDS011;4016;50.758;7.150;2023-02-28T09:02:56;3.00;;;2.80;;
7941;SDS011;4016;50.758;7.150;2023-02-28T09:07:56;3.47;;;2.60;;
7941;SDS011;4016;50.758;7.150;2023-02-28T09:12:56;3.20;;;2.70;;
7941;SDS011;4016;50.758;7.150;2023-02-28T09:17:57;1.80;;;1.70;;
7941;SDS011;4016;50.758;7.150;2023-02-28T09:22:57;2.93;;;2.70;;
7941;SDS011;4016;50.758;7.150;2023-02-28T09:27:57;2.57;;;2.13;;
7941;SDS011;4016;50.758;7.150;2023-02-28T09:32:58;2.07;;;1.97;;
7941;SDS011;4016;50.758;7.150;2023-02-28T09:37:58;2.97;;;2.40;;
7941;SDS011;4016;50.758;7.150;2023-02-28T09:42:59;3.10;;;2.80;;
7941;SDS011;4016;50.758;7.150;2023-02-28T09:48:01;2.63;;;2.43;;
7941;SDS011;4016;50.758;7.150;2023-02-28T09:53:11;2.90;;;2.70;;
7941;SDS011;4016;50.758;7.150;2023-02-28T09:58:30;2.37;;;1.90;;
7941;SDS011;4016;50.758;7.150;2023-02-28T10:03:55;2.43;;;2.23;;
7941;SDS011;4016;50.758;7.150;2023-02-28T10:09:00;2.43;;;2.23;;
7941;SDS011;4016;50.758;7.150;2023-02-28T10:19:16;2.37;;;2.17;;
7941;SDS011;4016;50.758;7.150;2023-02-28T10:29:43;3.53;;;2.07;;
7941;SDS011;4016;50.758;7.150;2023-02-28T10:45:17;2.60;;;2.40;;
7941;SDS011;4016;50.758;7.150;2023-02-28T10:55:30;2.73;;;2.47;;
7941;SDS011;4016;50.758;7.150;2023-02-28T11:00:33;2.50;;;2.30;;
7941;SDS011;4016;50.758;7.150;2023-02-28T11:05:35;3.30;;;2.60;;
7941;SDS011;4016;50.758;7.150;2023-02-28T11:10:36;3.10;;;2.67;;
7941;SDS011;4016;50.758;7.150;2023-02-28T11:15:37;2.67;;;2.00;;
7941;SDS011;4016;50.758;7.150;2023-02-28T11:20:37;2.50;;;2.30;;
7941;SDS011;4016;50.758;7.150;2023-02-28T11:25:39;2.43;;;2.23;;
7941;SDS011;4016;50.758;7.150;2023-02-28T11:30:41;2.90;;;2.60;;
7941;SDS011;4016;50.758;7.150;2023-02-28T11:35:41;1.80;;;1.70;;
7941;SDS011;4016;50.758;7.150;2023-02-28T12:02:26;4.17;;;2.90;;
7941;SDS011;4016;50.758;7.150;2023-02-28T12:07:20;3.17;;;2.40;;
7941;SDS011;4016;50.758;7.150;2023-02-28T12:17:49;2.67;;;2.47;;
7941;SDS011;4016;50.758;7.150;2023-02-28T12:28:31;2.80;;;2.60;;
7941;SDS011;4016;50.758;7.150;2023-02-28T12:33:36;2.63;;;2.43;;
7941;SDS011;4016;50.758;7.150;2023-02-28T12:38:43;3.57;;;2.80;;
7941;SDS011;4016;50.758;7.150;2023-02-28T12:43:51;2.67;;;2.47;;
7941;SDS011;4016;50.758;7.150;2023-02-28T12:48:58;2.17;;;2.07;;
7941;SDS011;4016;50.758;7.150;2023-02-28T12:59:25;3.10;;;2.73;;
7941;SDS011;4016;50.758;7.150;2023-02-28T13:09:34;2.83;;;2.57;;
7941;SDS011;4016;50.758;7.150;2023-02-28T13:19:36;4.37;;;3.00;;
7941;SDS011;4016;50.758;7.150;2023-02-28T13:24:52;2.90;;;2.70;;
7941;SDS011;4016;50.758;7.150;2023-02-28T13:29:54;3.20;;;2.90;;
7941;SDS011;4016;50.758;7.150;2023-02-28T13:39:56;3.80;;;3.30;;
7941;SDS011;4016;50.758;7.150;2023-02-28T13:55:34;2.77;;;2.57;;
7941;SDS011;4016;50.758;7.150;2023-02-28T14:06:27;3.77;;;3.10;;
7941;SDS011;4016;50.758;7.150;2023-02-28T14:11:33;3.53;;;3.23;;
7941;SDS011;4016;50.758;7.150;2023-02-28T14:16:40;4.20;;;3.00;;
7941;SDS011;4016;50.758;7.150;2023-02-28T14:37:30;4.03;;;3.47;;
7941;SDS011;4016;50.758;7.150;2023-02-28T14:42:35;3.80;;;3.33;;
7941;SDS011;4016;50.758;7.150;2023-02-28T14:47:37;3.53;;;3.23;;
7941;SDS011;4016;50.758;7.150;2023-02-28T14:52:38;3.50;;;3.20;;
7941;SDS011;4016;50.758;7.150;2023-02-28T14:57:43;3.80;;;3.40;;
7941;SDS011;4016;50.758;7.150;2023-02-28T15:02:51;4.07;;;3.67;;
7941;SDS011;4016;50.758;7.150;2023-02-28T15:08:12;3.47;;;3.17;;
7941;SDS011;4016;50.758;7.150;2023-02-28T15:13:16;4.10;;;3.50;;
7941;SDS011;4016;50.758;7.150;2023-02-28T15:23:22;5.47;;;3.50;;
7941;SDS011;4016;50.758;7.150;2023-02-28T15:28:22;4.90;;;3.47;;
7941;SDS011;4016;50.758;7.150;2023-02-28T15:33:25;3.90;;;3.23;;
7941;SDS011;4016;50.758;7.150;2023-02-28T15:38:27;4.20;;;3.07;;
7941;SDS011;4016;50.758;7.150;2023-02-28T15:53:54;3.43;;;3.13;;
7941;SDS011;4016;50.758;7.150;2023-02-28T15:58:57;4.30;;;3.47;;
7941;SDS011;4016;50.758;7.150;2023-02-28T16:04:01;4.33;;;2.80;;
7941;SDS011;4016;50.758;7.150;2023-02-28T16:09:05;3.90;;;3.30;;
7941;SDS011;4016;50.758;7.150;2023-02-28T16:14:29;3.73;;;3.37;;
7941;SDS011;4016;50.758;7.150;2023-02-28T16:19:32;3.77;;;3.23;;
7941;SDS011;4016;50.758;7.150;2023-02-28T16:24:32;3.60;;;3.30;;
7941;SDS011;4016;50.758;7.150;2023-02-28T16:29:34;3.57;;;3.20;;
7941;SDS011;4016;50.758;7.150;2023-02-28T16:34:36;3.47;;;3.17;;
7941;SDS011;4016;50.758;7.150;2023-02-28T16:39:36;3.70;;;3.37;;
7941;SDS011;4016;50.758;7.150;2023-02-28T16:44:37;5.27;;;3.50;;
7941;SDS011;4016;50.758;7.150;2023-02-28T16:49:37;3.60;;;3.03;;
7941;SDS011;4016;50.758;7.150;2023-02-28T16:54:38;3.87;;;3.20;;
7941;SDS011;4016;50.758;7.150;2023-02-28T16:59:40;3.30;;;3.00;;
7941;SDS011;4016;50.758;7.150;2023-02-28T17:04:40;3.43;;;2.80;;
7941;SDS011;4016;50.758;7.150;2023-02-28T17:09:40;3.33;;;2.90;;
7941;SDS011;4016;50.758;7.150;2023-02-28T17:14:41;6.00;;;3.00;;
7941;SDS011;4016;50.758;7.150;2023-02-28T17:19:41;4.30;;;3.23;;
7941;SDS011;4016;50.758;7.150;2023-02-28T17:24:43;2.33;;;2.23;;
7941;SDS011;4016;50.758;7.150;2023-02-28T17:29:45;3.47;;;3.13;;
7941;SDS011;4016;50.758;7.150;2023-02-28T17:34:45;4.00;;;3.30;;
7941;SDS011;4016;50.758;7.150;2023-02-28T17:39:46;4.23;;;2.90;;
7941;SDS011;4016;50.758;7.150;2023-02-28T17:44:46;4.07;;;3.50;;
7941;SDS011;4016;50.758;7.150;2023-02-28T17:49:47;4.23;;;3.87;;
7941;SDS011;4016;50.758;7.150;2023-02-28T17:54:47;3.90;;;3.33;;
7941;SDS011;4016;50.758;7.150;2023-02-28T17:59:47;5.03;;;3.30;;
7941;SDS011;4016;50.758;7.150;2023-02-28T18:04:48;3.97;;;3.13;;
7941;SDS011;4016;50.758;7.150;2023-02-28T18:09:48;4.93;;;3.47;;
7941;SDS011;4016;50.758;7.150;2023-02-28T18:14:48;5.13;;;3.50;;
7941;SDS011;4016;50.758;7.150;2023-02-28T18:19:49;4.17;;;3.77;;
7941;SDS011;4016;50.758;7.150;2023-02-28T18:24:50;5.57;;;4.40;;
7941;SDS011;4016;50.758;7.150;2023-02-28T18:29:50;4.60;;;4.03;;
7941;SDS011;4016;50.758;7.150;2023-02-28T18:34:51;4.67;;;4.17;;
7941;SDS011;4016;50.758;7.150;2023-02-28T18:39:51;8.33;;;4.30;;
7941;SDS011;4016;50.758;7.150;2023-02-28T18:44:53;5.27;;;4.00;;
7941;SDS011;4016;50.758;7.150;2023-02-28T18:49:53;5.80;;;4.47;;
7941;SDS011;4016;50.758;7.150;2023-02-28T18:54:53;5.57;;;4.20;;
7941;SDS011;4016;50.758;7.150;2023-02-28T18:59:54;5.73;;;4.10;;
7941;SDS011;4016;50.758;7.150;2023-02-28T19:04:54;8.20;;;4.40;;
7941;SDS011;4016;50.758;7.150;2023-02-28T19:09:55;5.57;;;4.20;;
7941;SDS011;4016;50.758;7.150;2023-02-28T19:14:55;5.73;;;4.67;;
7941;SDS011;4016;50.758;7.150;2023-02-28T19:19:55;7.00;;;4.07;;
7941;SDS011;4016;50.758;7.150;2023-02-28T19:24:56;6.50;;;4.57;;
7941;SDS011;4016;50.758;7.150;2023-02-28T19:29:56;5.73;;;4.97;;
7941;SDS011;4016;50.758;7.150;2023-02-28T19:34:58;8.53;;;5.67;;
7941;SDS011;4016;50.758;7.150;2023-02-28T19:39:58;9.07;;;6.63;;
7941;SDS011;4016;50.758;7.150;2023-02-28T19:44:58;9.90;;;6.80;;
7941;SDS011;4016;50.758;7.150;2023-02-28T19:49:59;7.77;;;6.07;;
7941;SDS011;4016;50.758;7.150;2023-02-28T19:54:59;7.37;;;5.70;;
7941;SDS011;4016;50.758;7.150;2023-02-28T20:00:00;7.37;;;6.03;;
7941;SDS011;4016;50.758;7.150;2023-02-28T20:05:00;8.83;;;6.70;;
7941;SDS011;4016;50.758;7.150;2023-02-28T20:10:01;8.37;;;6.03;;
7941;SDS011;4016;50.758;7.150;2023-02-28T20:15:01;7.50;;;6.50;;
7941;SDS011;4016;50.758;7.150;2023-02-28T20:20:02;10.67;;;6.53;;
7941;SDS011;4016;50.758;7.150;2023-02-28T20:25:03;13.93;;;7.07;;
7941;SDS011;4016;50.758;7.150;2023-02-28T20:30:04;9.10;;;6.77;;
7941;SDS011;4016;50.758;7.150;2023-02-28T20:35:05;8.57;;;6.57;;
7941;SDS011;4016;50.758;7.150;2023-02-28T20:40:09;10.30;;;6.87;;
7941;SDS011;4016;50.758;7.150;2023-02-28T20:45:10;10.63;;;6.67;;
7941;SDS011;4016;50.758;7.150;2023-02-28T20:50:10;11.80;;;6.67;;
7941;SDS011;4016;50.758;7.150;2023-02-28T20:55:11;9.47;;;6.73;;
7941;SDS011;4016;50.758;7.150;2023-02-28T21:00:12;7.80;;;5.83;;
7941;SDS011;4016;50.758;7.150;2023-02-28T21:05:18;6.67;;;5.53;;
7941;SDS011;4016;50.758;7.150;2023-02-28T21:10:18;7.97;;;5.67;;
7941;SDS011;4016;50.758;7.150;2023-02-28T21:15:18;7.20;;;5.57;;
7941;SDS011;4016;50.758;7.150;2023-02-28T21:20:20;7.77;;;5.67;;
7941;SDS011;4016;50.758;7.150;2023-02-28T21:25:20;5.60;;;4.60;;
7941;SDS011;4016;50.758;7.150;2023-02-28T21:30:21;9.67;;;5.00;;
7941;SDS011;4016;50.758;7.150;2023-02-28T21:35:21;7.40;;;5.60;;
7941;SDS011;4016;50.758;7.150;2023-02-28T21:40:22;7.40;;;5.23;;
7941;SDS011;4016;50.758;7.150;2023-02-28T21:45:22;7.20;;;6.03;;
7941;SDS011;4016;50.758;7.150;2023-02-28T21:50:23;7.63;;;5.93;;
7941;SDS011;4016;50.758;7.150;2023-02-28T21:55:23;5.37;;;4.87;;
7941;SDS011;4016;50.758;7.150;2023-02-28T22:00:24;6.90;;;5.57;;
7941;SDS011;4016;50.758;7.150;2023-02-28T22:05:24;8.63;;;6.67;;
7941;SDS011;4016;50.758;7.150;2023-02-28T22:10:25;5.80;;;5.20;;
7941;SDS011;4016;50.758;7.150;2023-02-28T22:15:25;9.07;;;6.00;;
7941;SDS011;4016;50.758;7.150;2023-02-28T22:20:26;10.97;;;6.10;;
7941;SDS011;4016;50.758;7.150;2023-02-28T22:25:27;8.60;;;5.60;;
7941;SDS011;4016;50.758;7.150;2023-02-28T22:30:27;7.90;;;5.53;;
7941;SDS011;4016;50.758;7.150;2023-02-28T22:35:28;6.73;;;6.10;;
7941;SDS011;4016;50.758;7.150;2023-02-28T22:40:28;8.10;;;6.20;;
7941;SDS011;4016;50.758;7.150;2023-02-28T22:45:29;8.20;;;5.57;;
7941;SDS011;4016;50.758;7.150;2023-02-28T22:50:29;6.17;;;5.53;;
7941;SDS011;4016;50.758;7.150;2023-02-28T22:55:30;9.57;;;6.30;;
7941;SDS011;4016;50.758;7.150;2023-02-28T23:00:30;8.13;;;6.50;;
7941;SDS011;4016;50.758;7.150;2023-02-28T23:05:30;9.90;;;6.20;;
7941;SDS011;4016;50.758;7.150;2023-02-28T23:10:31;7.87;;;6.67;;
7941;SDS011;4016;50.758;7.150;2023-02-28T23:15:31;11.30;;;5.60;;
7941;SDS011;4016;50.758;7.150;2023-02-28T23:20:31;10.53;;;6.37;;
7941;SDS011;4016;50.758;7.150;2023-02-28T23:25:32;5.53;;;4.87;;
7941;SDS011;4016;50.758;7.150;2023-02-28T23:30:33;9.27;;;5.37;;
7941;SDS011;4016;50.758;7.150;2023-02-28T23:35:33;6.33;;;4.57;;
7941;SDS011;4016;50.758;7.150;2023-02-28T23:40:34;7.13;;;5.20;;
7941;SDS011;4016;50.758;7.150;2023-02-28T23:45:34;7.73;;;5.73;;
7941;SDS011;4016;50.758;7.150;2023-02-28T23:50:36;6.83;;;5.93;;
7941;SDS011;4016;50.758;7.150;2023-02-28T23:55:36;6.17;;;5.47;;
